createdAt,value
2023-05-04T00:02:18.412Z,58.90
2023-05-04T00:04:45.013Z,64.30
2023-05-04T00:07:11.663Z,66.40
2023-05-04T00:09:38.464Z,68.50
2023-05-04T00:12:06.754Z,58.80
2023-05-04T00:14:33.428Z,60.60
2023-05-04T00:17:00.027Z,66.70
2023-05-04T00:19:26.590Z,70.00
2023-05-04T00:21:53.126Z,72.90
2023-05-04T00:24:19.648Z,68.80
2023-05-04T00:26:46.346Z,65.80
2023-05-04T00:29:12.934Z,62.30
2023-05-04T00:31:39.607Z,58.90
2023-05-04T00:34:06.323Z,59.00
2023-05-04T00:36:32.888Z,54.60
2023-05-04T00:38:59.487Z,59.80
2023-05-04T00:41:26.106Z,56.10
2023-05-04T00:43:52.673Z,56.50
2023-05-04T00:46:19.462Z,64.70
2023-05-04T00:48:48.514Z,61.30
2023-05-04T00:51:17.035Z,54.40
2023-05-04T00:53:44.077Z,51.70
2023-05-04T00:56:11.896Z,54.00
2023-05-04T00:58:38.507Z,55.00
2023-05-04T01:01:05.367Z,55.90
2023-05-04T01:03:33.729Z,49.40
2023-05-04T01:06:19.545Z,48.80
2023-05-04T01:08:57.882Z,50.90
2023-05-04T01:11:42.733Z,48.70
2023-05-04T01:14:10.410Z,53.30
2023-05-04T01:16:37.083Z,52.90
2023-05-04T01:19:03.987Z,55.10
2023-05-04T01:21:31.296Z,51.20
2023-05-04T01:23:59.126Z,52.90
2023-05-04T01:26:29.909Z,46.10
2023-05-04T01:29:04.918Z,49.50
2023-05-04T01:31:35.399Z,44.60
2023-05-04T01:34:03.349Z,49.30
2023-05-04T01:36:30.822Z,43.60
2023-05-04T01:39:00.218Z,42.20
2023-05-04T01:41:27.412Z,44.30
2023-05-04T01:43:54.418Z,42.60
2023-05-04T01:46:21.446Z,42.30
2023-05-04T01:48:48.159Z,43.00
2023-05-04T01:51:14.790Z,41.30
2023-05-04T01:53:41.380Z,44.30
2023-05-04T01:56:09.398Z,44.40
2023-05-04T01:58:35.993Z,48.60
2023-05-04T02:01:02.578Z,43.00
2023-05-04T02:03:29.510Z,43.90
2023-05-04T02:05:56.186Z,47.10
2023-05-04T02:08:22.932Z,42.40
2023-05-04T02:10:49.603Z,41.90
2023-05-04T02:13:16.706Z,45.50
2023-05-04T02:18:44.881Z,42.10
2023-05-04T02:21:11.613Z,47.20
2023-05-04T02:23:38.184Z,40.10
2023-05-04T02:26:04.763Z,40.60
2023-05-04T02:28:31.322Z,42.10
2023-05-04T02:30:57.970Z,43.20
2023-05-04T02:33:24.509Z,45.20
2023-05-04T02:35:51.882Z,40.80
2023-05-04T02:38:18.420Z,41.10
2023-05-04T02:40:45.010Z,45.10
2023-05-04T02:43:11.653Z,38.80
2023-05-04T02:45:38.283Z,43.50
2023-05-04T02:48:05.099Z,45.80
2023-05-04T02:50:32.080Z,46.10
2023-05-04T02:52:58.705Z,45.50
2023-05-04T02:55:25.804Z,39.30
2023-05-04T02:57:52.382Z,41.40
2023-05-04T03:00:19.103Z,38.30
2023-05-04T03:02:45.877Z,43.10
2023-05-04T03:05:12.699Z,37.60
2023-05-04T03:07:39.402Z,40.50
2023-05-04T03:10:07.353Z,38.30
2023-05-04T03:12:34.370Z,38.20
2023-05-04T03:15:01.055Z,39.80
2023-05-04T03:17:27.779Z,35.30
2023-05-04T03:19:55.238Z,37.10
2023-05-04T03:22:22.432Z,41.30
2023-05-04T03:24:49.485Z,38.30
2023-05-04T03:27:17.293Z,42.20
2023-05-04T03:29:44.163Z,43.40
2023-05-04T03:32:13.377Z,36.40
2023-05-04T03:34:40.231Z,46.30
2023-05-04T03:37:08.144Z,39.20
2023-05-04T03:39:34.851Z,49.30
2023-05-04T03:42:02.639Z,45.40
2023-05-04T03:44:29.387Z,50.60
2023-05-04T03:46:56.116Z,50.60
2023-05-04T03:49:22.705Z,42.70
2023-05-04T03:51:49.314Z,46.70
2023-05-04T03:54:15.920Z,51.10
2023-05-04T03:56:42.518Z,47.60
2023-05-04T03:59:09.195Z,44.50
2023-05-04T04:01:36.509Z,51.00
2023-05-04T04:04:03.581Z,47.10
2023-05-04T04:06:30.994Z,47.50
2023-05-04T04:08:57.603Z,42.60
2023-05-04T04:11:24.189Z,45.70
2023-05-04T04:13:51.136Z,44.60
2023-05-04T04:16:17.783Z,48.50
2023-05-04T04:18:44.523Z,52.30
2023-05-04T04:21:11.238Z,51.50
2023-05-04T04:23:38.871Z,45.70
2023-05-04T04:26:08.342Z,52.40
2023-05-04T04:28:34.963Z,56.70
2023-05-04T04:31:03.298Z,51.50
2023-05-04T04:33:29.965Z,38.30
2023-05-04T04:35:56.581Z,41.50
2023-05-04T04:38:23.234Z,51.00
2023-05-04T04:40:49.768Z,44.00
2023-05-04T04:43:16.330Z,42.60
2023-05-04T04:45:42.960Z,42.40
2023-05-04T04:48:09.992Z,44.00
2023-05-04T04:50:39.191Z,48.40
2023-05-04T04:53:05.784Z,48.00
2023-05-04T04:55:32.590Z,49.20
2023-05-04T04:57:59.172Z,36.50
2023-05-04T05:00:26.241Z,38.90
2023-05-04T05:02:52.896Z,39.70
2023-05-04T05:05:19.725Z,43.80
2023-05-04T05:07:46.338Z,43.30
2023-05-04T05:10:19.889Z,44.50
2023-05-04T05:12:51.949Z,38.00
2023-05-04T05:15:18.677Z,34.40
2023-05-04T05:17:45.282Z,30.40
2023-05-04T05:20:12.050Z,29.90
2023-05-04T05:22:39.406Z,27.20
2023-05-04T05:25:07.542Z,27.30
2023-05-04T05:27:34.646Z,25.60
2023-05-04T05:30:02.421Z,18.90
2023-05-04T05:32:29.782Z,24.00
2023-05-04T05:34:56.835Z,28.70
2023-05-04T05:37:24.150Z,26.20
2023-05-04T05:39:51.206Z,26.30
2023-05-04T05:42:18.252Z,27.70
2023-05-04T05:44:44.828Z,28.10
2023-05-04T05:47:11.395Z,22.80
2023-05-04T05:49:38.484Z,26.00
2023-05-04T05:52:05.322Z,18.80
2023-05-04T05:54:33.494Z,13.10
2023-05-04T05:57:00.206Z,10.00
2023-05-04T05:59:26.799Z,13.00
2023-05-04T06:01:53.559Z,18.00
2023-05-04T06:04:20.290Z,15.70
2023-05-04T06:06:46.982Z,18.20
2023-05-04T06:09:13.605Z,19.50
2023-05-04T06:11:40.114Z,14.20
2023-05-04T06:14:06.743Z,9.40
2023-05-04T06:16:33.387Z,8.30
2023-05-04T06:18:59.998Z,9.00
2023-05-04T06:21:26.651Z,7.00
2023-05-04T06:23:53.263Z,4.70
2023-05-04T06:26:20.211Z,4.30
2023-05-04T06:28:46.941Z,3.60
2023-05-04T06:31:13.645Z,6.00
2023-05-04T06:33:40.205Z,6.50
2023-05-04T06:36:07.441Z,4.80
2023-05-04T06:38:35.739Z,4.40
2023-05-04T06:41:04.624Z,4.40
2023-05-04T06:43:32.441Z,3.80
2023-05-04T06:46:03.871Z,4.30
2023-05-04T06:48:31.826Z,7.10
2023-05-04T06:51:00.652Z,3.20
2023-05-04T06:53:28.399Z,2.60
2023-05-04T06:55:55.253Z,2.20
2023-05-04T06:58:22.003Z,3.60
2023-05-04T07:00:48.906Z,2.10
2023-05-04T07:03:15.824Z,2.10
2023-05-04T07:05:44.563Z,1.70
2023-05-04T07:08:11.787Z,1.60
2023-05-04T07:10:38.556Z,3.60
2023-05-04T07:13:05.890Z,3.00
2023-05-04T07:15:33.897Z,1.50
2023-05-04T07:18:01.495Z,9.20
2023-05-04T07:20:28.687Z,1.60
2023-05-04T07:22:57.055Z,3.40
2023-05-04T07:25:30.497Z,3.00
2023-05-04T07:27:58.267Z,2.30
2023-05-04T07:30:25.048Z,1.60
2023-05-04T07:32:52.013Z,1.20
2023-05-04T07:35:19.246Z,3.20
2023-05-04T07:37:46.499Z,2.00
2023-05-04T07:40:14.775Z,1.20
2023-05-04T07:42:42.249Z,1.60
2023-05-04T07:45:09.861Z,2.40
2023-05-04T07:47:37.193Z,3.20
2023-05-04T07:50:07.452Z,1.70
2023-05-04T07:52:34.313Z,2.40
2023-05-04T07:55:00.932Z,2.00
2023-05-04T07:57:27.553Z,1.30
2023-05-04T07:59:55.435Z,1.70
2023-05-04T08:02:22.889Z,1.20
2023-05-04T08:04:50.046Z,2.90
2023-05-04T08:07:17.157Z,1.30
2023-05-04T08:09:43.844Z,1.90
2023-05-04T08:12:12.301Z,1.60
2023-05-04T08:14:39.908Z,3.70
2023-05-04T08:17:06.556Z,2.00
2023-05-04T08:19:33.915Z,1.50
2023-05-04T08:22:00.747Z,2.10
2023-05-04T08:24:27.456Z,1.30
2023-05-04T08:27:06.626Z,1.90
2023-05-04T08:29:37.210Z,1.50
2023-05-04T08:32:04.316Z,1.50
2023-05-04T08:34:31.461Z,1.30
2023-05-04T08:36:58.306Z,1.20
2023-05-04T08:39:25.220Z,1.50
2023-05-04T08:41:51.870Z,3.70
2023-05-04T08:44:21.165Z,1.30
2023-05-04T08:46:54.291Z,2.30
2023-05-04T08:49:21.786Z,2.20
2023-05-04T08:51:51.270Z,1.20
2023-05-04T08:54:18.569Z,2.90
2023-05-04T08:56:47.224Z,2.30
2023-05-04T08:59:22.055Z,1.10
2023-05-04T09:01:53.060Z,1.10
2023-05-04T09:04:20.708Z,1.20
2023-05-04T09:06:47.528Z,1.70
2023-05-04T09:09:14.626Z,1.80
2023-05-04T09:11:41.428Z,2.00
2023-05-04T09:14:08.180Z,1.10
2023-05-04T09:16:36.617Z,1.50
2023-05-04T09:19:04.819Z,1.00
2023-05-04T09:21:32.211Z,1.50
2023-05-04T09:23:59.316Z,1.70
2023-05-04T09:26:30.629Z,2.40
2023-05-04T09:29:09.725Z,2.40
2023-05-04T09:31:48.057Z,2.50
2023-05-04T09:34:15.144Z,1.40
2023-05-04T09:36:42.288Z,2.10
2023-05-04T09:39:11.500Z,1.00
2023-05-04T09:41:38.458Z,1.00
2023-05-04T09:44:05.465Z,0.70
2023-05-04T09:46:33.027Z,1.10
2023-05-04T09:49:00.801Z,1.20
2023-05-04T09:51:27.622Z,3.50
2023-05-04T09:53:54.657Z,1.00
2023-05-04T09:56:37.591Z,1.10
2023-05-04T09:59:05.341Z,1.10
2023-05-04T10:01:32.442Z,1.60
2023-05-04T10:03:59.418Z,1.10
2023-05-04T10:06:28.949Z,1.00
2023-05-04T10:08:56.679Z,1.10
2023-05-04T10:11:25.756Z,0.90
2023-05-04T10:16:46.061Z,1.70
2023-05-04T10:19:38.352Z,1.30
2023-05-04T10:22:32.942Z,1.80
2023-05-04T10:25:22.506Z,1.80
2023-05-04T10:27:49.097Z,1.50
2023-05-04T10:30:18.521Z,2.60
2023-05-04T10:32:45.871Z,1.50
2023-05-04T10:35:12.837Z,1.20
2023-05-04T10:37:51.285Z,1.10
2023-05-04T10:40:18.219Z,2.00
2023-05-04T10:42:45.234Z,1.50
2023-05-04T10:45:13.091Z,2.20
2023-05-04T10:47:40.939Z,1.20
2023-05-04T10:50:14.694Z,1.20
2023-05-04T10:52:48.935Z,3.50
2023-05-04T10:55:17.135Z,2.80
2023-05-04T10:58:02.247Z,3.40
2023-05-04T11:00:46.604Z,1.20
2023-05-04T11:03:14.530Z,1.90
2023-05-04T11:05:52.748Z,1.60
2023-05-04T11:08:26.507Z,1.10
2023-05-04T11:11:05.845Z,1.70
2023-05-04T11:13:41.500Z,1.10
2023-05-04T11:16:12.370Z,1.90
2023-05-04T11:18:39.500Z,1.00
2023-05-04T11:21:06.257Z,1.50
2023-05-04T11:23:33.492Z,2.10
2023-05-04T11:26:12.311Z,2.30
2023-05-04T11:28:39.617Z,4.10
2023-05-04T11:31:17.445Z,3.40
2023-05-04T11:33:51.570Z,0.80
2023-05-04T11:36:19.433Z,1.50
2023-05-04T11:38:47.007Z,1.70
2023-05-04T11:41:13.876Z,1.30
2023-05-04T11:43:43.661Z,1.00
2023-05-04T11:46:11.203Z,1.70
2023-05-04T11:48:38.900Z,1.60
2023-05-04T11:51:06.567Z,1.70
2023-05-04T11:53:41.610Z,2.40
2023-05-04T11:56:09.850Z,1.10
2023-05-04T11:58:37.265Z,1.20
2023-05-04T12:01:04.965Z,1.40
2023-05-04T12:03:48.623Z,1.90
2023-05-04T12:06:33.059Z,1.10
2023-05-04T12:09:06.910Z,1.80
2023-05-04T12:11:39.528Z,4.90
2023-05-04T12:14:12.703Z,2.30
2023-05-04T12:16:43.040Z,4.80
2023-05-04T12:19:15.728Z,1.30
2023-05-04T12:21:52.403Z,1.80
2023-05-04T12:24:25.199Z,1.20
2023-05-04T12:26:54.257Z,2.80
2023-05-04T12:34:21.757Z,0.70
2023-05-04T12:36:52.341Z,1.20
2023-05-04T12:39:21.758Z,2.10
2023-05-04T12:41:50.795Z,1.30
2023-05-04T12:44:21.278Z,3.20
2023-05-04T12:46:50.214Z,2.20
2023-05-04T12:49:19.051Z,1.90
2023-05-04T12:51:48.155Z,1.40
2023-05-04T12:54:17.773Z,1.30
2023-05-04T13:01:45.189Z,2.10
2023-05-04T13:04:14.137Z,2.20
2023-05-04T13:14:11.191Z,3.20
2023-05-04T13:16:37.792Z,2.50
2023-05-04T13:19:04.949Z,2.20
2023-05-04T13:21:31.920Z,2.80
2023-05-04T13:23:59.378Z,2.00
2023-05-04T13:26:26.154Z,4.30
2023-05-04T13:28:52.887Z,1.40
2023-05-04T13:31:19.628Z,4.20
2023-05-04T13:33:46.726Z,2.00
2023-05-04T13:36:13.509Z,2.50
2023-05-04T13:38:40.121Z,1.70
2023-05-04T13:41:06.821Z,6.10
2023-05-04T13:43:33.420Z,2.60
2023-05-04T13:46:04.431Z,4.40
2023-05-04T13:48:32.916Z,1.50
2023-05-04T13:50:59.593Z,4.30
2023-05-04T13:53:26.446Z,1.50
2023-05-04T13:55:53.087Z,3.40
2023-05-04T13:58:19.675Z,1.80
2023-05-04T14:00:46.718Z,1.30
2023-05-04T14:03:13.329Z,2.90
2023-05-04T14:05:39.958Z,4.20
2023-05-04T14:08:06.654Z,3.00
2023-05-04T14:10:34.934Z,2.30
2023-05-04T14:13:02.642Z,3.00
2023-05-04T14:15:29.495Z,2.00
2023-05-04T14:17:56.612Z,1.50
2023-05-04T14:20:23.300Z,2.40
2023-05-04T14:22:49.865Z,3.00
2023-05-04T14:25:16.571Z,1.30
2023-05-04T14:27:43.513Z,5.10
2023-05-04T14:30:10.953Z,2.20
2023-05-04T14:32:37.523Z,1.50
2023-05-04T14:35:08.518Z,1.20
2023-05-04T14:37:38.119Z,2.40
2023-05-04T14:40:06.591Z,3.80
2023-05-04T14:42:33.473Z,1.90
2023-05-04T14:45:00.068Z,2.70
2023-05-04T14:47:27.642Z,2.40
2023-05-04T14:49:54.398Z,3.00
2023-05-04T14:52:21.267Z,2.20
2023-05-04T14:54:47.793Z,5.70
2023-05-04T14:57:14.440Z,3.40
2023-05-04T14:59:42.135Z,2.20
2023-05-04T15:02:09.194Z,1.50
2023-05-04T15:04:36.441Z,3.00
2023-05-04T15:07:04.610Z,2.90
2023-05-04T15:09:31.677Z,2.30
2023-05-04T15:11:58.362Z,2.80
2023-05-04T15:14:26.425Z,1.90
2023-05-04T15:16:53.069Z,1.50
2023-05-04T15:19:21.097Z,2.80
2023-05-04T15:21:48.639Z,1.20
2023-05-04T15:24:15.242Z,2.30
2023-05-04T15:26:41.834Z,2.80
2023-05-04T15:29:08.792Z,1.10
2023-05-04T15:31:35.995Z,2.30
2023-05-04T15:34:02.799Z,2.40
2023-05-04T15:36:31.745Z,2.50
2023-05-04T15:38:58.383Z,9.30
2023-05-04T15:41:24.978Z,3.30
2023-05-04T15:43:51.591Z,1.90
2023-05-04T15:46:18.165Z,2.00
2023-05-04T15:48:44.930Z,2.30
2023-05-04T15:51:14.970Z,5.40
2023-05-04T15:53:41.685Z,2.30
2023-05-04T15:56:08.434Z,1.90
2023-05-04T15:58:35.080Z,1.50
2023-05-04T16:01:04.037Z,6.50
2023-05-04T16:03:31.815Z,7.70
2023-05-04T16:05:58.600Z,3.90
2023-05-04T16:08:25.998Z,5.20
2023-05-04T16:10:54.124Z,3.30
2023-05-04T16:13:20.895Z,2.10
2023-05-04T16:15:51.572Z,3.30
2023-05-04T16:18:18.582Z,3.00
2023-05-04T16:20:46.291Z,3.00
2023-05-04T16:23:15.207Z,3.80
2023-05-04T16:25:42.429Z,2.50
2023-05-04T16:28:10.268Z,3.80
2023-05-04T16:30:37.855Z,11.40
2023-05-04T16:33:04.664Z,3.40
2023-05-04T16:35:32.189Z,1.80
2023-05-04T16:37:59.023Z,3.90
2023-05-04T16:40:25.734Z,2.50
2023-05-04T16:42:52.415Z,2.80
2023-05-04T16:45:19.557Z,4.60
2023-05-04T16:47:46.413Z,3.80
2023-05-04T16:50:14.318Z,5.60
2023-05-04T16:52:41.955Z,3.50
2023-05-04T16:55:12.063Z,19.20
2023-05-04T16:57:39.159Z,4.80
2023-05-04T17:00:07.109Z,4.30
2023-05-04T17:02:34.346Z,3.50
2023-05-04T17:05:01.169Z,5.60
2023-05-04T17:07:28.529Z,6.20
2023-05-04T17:09:55.152Z,6.40
2023-05-04T17:12:23.423Z,7.50
2023-05-04T17:14:50.210Z,13.70
2023-05-04T17:17:16.849Z,12.90
2023-05-04T17:19:43.414Z,15.30
2023-05-04T17:22:11.204Z,17.00
2023-05-04T17:24:38.067Z,15.50
2023-05-04T17:27:04.975Z,19.90
2023-05-04T17:29:31.757Z,17.80
2023-05-04T17:31:58.703Z,17.70
2023-05-04T17:34:25.346Z,21.00
2023-05-04T17:36:52.206Z,19.60
2023-05-04T17:39:19.904Z,19.40
2023-05-04T17:41:48.801Z,21.20
2023-05-04T17:44:16.433Z,23.00
2023-05-04T17:46:43.743Z,19.60
2023-05-04T17:49:10.650Z,14.90
2023-05-04T17:51:37.434Z,14.10
2023-05-04T17:54:04.209Z,27.70
2023-05-04T17:56:31.032Z,71.70
2023-05-04T17:58:57.735Z,39.10
2023-05-04T18:01:24.500Z,34.20
2023-05-04T18:03:51.235Z,22.30
2023-05-04T18:06:18.089Z,23.20
2023-05-04T18:08:44.938Z,19.10
2023-05-04T18:11:12.352Z,18.70
2023-05-04T18:13:39.001Z,17.50
2023-05-04T18:16:05.920Z,21.50
2023-05-04T18:18:33.310Z,24.10
2023-05-04T18:21:00.932Z,33.90
2023-05-04T18:23:27.670Z,25.70
2023-05-04T18:25:54.388Z,42.00
2023-05-04T18:28:21.149Z,38.10
2023-05-04T18:30:48.085Z,39.10
2023-05-04T18:33:14.705Z,33.70
2023-05-04T18:35:41.915Z,34.50
2023-05-04T18:38:08.608Z,31.10
2023-05-04T18:40:35.390Z,37.10
2023-05-04T18:43:02.016Z,35.40
2023-05-04T18:45:28.677Z,33.00
2023-05-04T18:47:55.425Z,39.00
2023-05-04T18:50:22.010Z,41.40
2023-05-04T18:52:48.638Z,39.30
2023-05-04T18:55:15.242Z,47.00
2023-05-04T18:57:41.842Z,37.30
2023-05-04T19:00:09.304Z,39.90
2023-05-04T19:02:37.177Z,47.90
2023-05-04T19:05:04.010Z,45.00
2023-05-04T19:07:30.673Z,44.20
2023-05-04T19:09:57.657Z,46.30
2023-05-04T19:12:24.563Z,44.10
2023-05-04T19:14:51.325Z,61.30
2023-05-04T19:17:18.727Z,67.10
2023-05-04T19:19:45.594Z,78.30
2023-05-04T19:22:13.403Z,77.00
2023-05-04T19:24:40.152Z,71.60
2023-05-04T19:27:07.378Z,60.40
2023-05-04T19:29:34.218Z,58.80
2023-05-04T19:32:05.585Z,65.30
2023-05-04T19:34:42.996Z,62.70
2023-05-04T19:37:09.905Z,58.40
2023-05-04T19:39:36.791Z,52.50
2023-05-04T19:42:03.625Z,56.10
2023-05-04T19:44:30.312Z,52.30
2023-05-04T19:46:57.229Z,51.10
2023-05-04T19:49:25.037Z,70.00
2023-05-04T19:51:51.881Z,74.80
2023-05-04T19:54:18.660Z,77.50
2023-05-04T19:56:45.506Z,72.90
2023-05-04T19:59:12.343Z,77.40
2023-05-04T20:01:39.085Z,76.30
2023-05-04T20:04:08.300Z,66.20
2023-05-04T20:06:36.166Z,59.60
2023-05-04T20:09:03.967Z,68.80
2023-05-04T20:11:31.040Z,61.10
2023-05-04T20:13:57.901Z,60.60
2023-05-04T20:16:24.698Z,44.10
2023-05-04T20:18:51.350Z,53.10
2023-05-04T20:21:18.088Z,58.60
2023-05-04T20:23:45.141Z,56.80
2023-05-04T20:26:12.108Z,47.00
2023-05-04T20:28:39.285Z,52.30
2023-05-04T20:31:07.697Z,51.80
2023-05-04T20:33:34.791Z,48.30
2023-05-04T20:36:02.540Z,45.40
2023-05-04T20:38:29.259Z,51.50
2023-05-04T20:40:56.059Z,47.40
2023-05-04T20:43:23.009Z,43.30
2023-05-04T20:45:49.736Z,41.60
2023-05-04T20:48:16.582Z,45.70
2023-05-04T20:50:43.418Z,49.30
2023-05-04T20:53:10.097Z,46.80
2023-05-04T20:55:37.275Z,46.50
2023-05-04T20:58:03.934Z,47.20
2023-05-04T21:00:32.382Z,41.10
2023-05-04T21:03:00.530Z,47.90
2023-05-04T21:05:27.460Z,39.70
2023-05-04T21:07:54.447Z,41.10
2023-05-04T21:10:21.433Z,49.00
2023-05-04T21:12:48.413Z,41.30
2023-05-04T21:15:15.300Z,41.30
2023-05-04T21:17:42.092Z,44.30
2023-05-04T21:20:09.580Z,43.50
2023-05-04T21:22:37.203Z,43.20
2023-05-04T21:25:04.517Z,42.70
2023-05-04T21:27:31.758Z,45.50
2023-05-04T21:29:58.727Z,40.70
2023-05-04T21:32:29.197Z,45.90
2023-05-04T21:34:56.382Z,45.40
2023-05-04T21:37:23.071Z,39.60
2023-05-04T21:39:55.793Z,39.20
2023-05-04T21:42:23.876Z,42.60
2023-05-04T21:44:55.314Z,42.80
2023-05-04T21:47:25.806Z,38.10
2023-05-04T21:49:53.849Z,43.80
2023-05-04T21:52:21.128Z,45.50
2023-05-04T21:54:47.818Z,46.50
2023-05-04T21:57:14.876Z,43.60
2023-05-04T21:59:41.561Z,48.80
2023-05-04T22:02:09.952Z,47.10
2023-05-04T22:04:36.861Z,48.40
2023-05-04T22:07:03.613Z,50.70
2023-05-04T22:09:30.288Z,52.10
2023-05-04T22:11:57.127Z,52.10
2023-05-04T22:14:23.714Z,48.60
2023-05-04T22:16:52.982Z,38.60
2023-05-04T22:19:19.653Z,45.90
2023-05-04T22:21:46.278Z,49.50
2023-05-04T22:24:12.870Z,51.50
2023-05-04T22:26:40.834Z,57.00
2023-05-04T22:29:07.383Z,53.70
2023-05-04T22:31:33.965Z,52.20
2023-05-04T22:34:00.816Z,53.00
2023-05-04T22:36:27.597Z,52.50
2023-05-04T22:38:54.166Z,37.30
2023-05-04T22:41:21.288Z,40.30
2023-05-04T22:43:47.894Z,40.70
2023-05-04T22:46:16.842Z,39.90
2023-05-04T22:48:46.711Z,36.00
2023-05-04T22:51:14.727Z,36.10
2023-05-04T22:53:41.370Z,37.40
2023-05-04T22:56:08.517Z,36.90
2023-05-04T22:58:35.540Z,36.20
2023-05-04T23:01:02.812Z,35.10
2023-05-04T23:03:29.489Z,40.30
2023-05-04T23:05:59.910Z,35.70
2023-05-04T23:08:26.552Z,34.10
2023-05-04T23:10:53.199Z,34.30
2023-05-04T23:13:19.772Z,33.00
2023-05-04T23:15:46.761Z,33.90
2023-05-04T23:18:15.435Z,30.60
2023-05-04T23:20:42.872Z,35.80
2023-05-04T23:23:09.438Z,41.50
2023-05-04T23:25:36.398Z,34.00
2023-05-04T23:28:03.644Z,34.00
2023-05-04T23:30:30.338Z,30.20
2023-05-04T23:32:57.839Z,27.80
2023-05-04T23:35:24.493Z,28.00
2023-05-04T23:37:51.236Z,28.30
2023-05-04T23:40:17.858Z,25.90
2023-05-04T23:42:48.097Z,24.50
2023-05-04T23:45:14.699Z,28.00
2023-05-04T23:47:41.249Z,24.80
2023-05-04T23:50:08.629Z,24.10
2023-05-04T23:52:35.380Z,23.40
2023-05-04T23:55:02.187Z,19.10
2023-05-04T23:57:28.731Z,18.70
2023-05-04T23:59:55.395Z,21.30
